sensor_id;sensor_type;location;lat;lon;timestamp;P1;durP1;ratioP1;P2;durP2;ratioP2
44126;SDS011;29786;50.798;7.302;2023-01-04T00:00:03;4;;;2.3;;
44126;SDS011;29786;50.798;7.302;2023-01-04T00:01:04;8.2;;;2.5;;
44126;SDS011;29786;50.798;7.302;2023-01-04T00:02:03;2.5;;;1.9;;
44126;SDS011;29786;50.798;7.302;2023-01-04T00:03:03;4.7;;;2.4;;
44126;SDS011;29786;50.798;7.302;2023-01-04T00:04:03;3.8;;;2;;
44126;SDS011;29786;50.798;7.302;2023-01-04T00:05:03;5.7;;;2.4;;
44126;SDS011;29786;50.798;7.302;2023-01-04T00:06:04;5.4;;;2.2;;
44126;SDS011;29786;50.798;7.302;2023-01-04T00:07:05;5.6;;;2.5;;
44126;SDS011;29786;50.798;7.302;2023-01-04T00:08:03;6;;;2.8;;
44126;SDS011;29786;50.798;7.302;2023-01-04T00:09:03;2.7;;;1.8;;
44126;SDS011;29786;50.798;7.302;2023-01-04T00:10:03;6;;;2.2;;
44126;SDS011;29786;50.798;7.302;2023-01-04T00:11:04;4.5;;;2;;
44126;SDS011;29786;50.798;7.302;2023-01-04T00:12:03;4.6;;;2.2;;
44126;SDS011;29786;50.798;7.302;2023-01-04T00:13:03;5.9;;;2.2;;
44126;SDS011;29786;50.798;7.302;2023-01-04T00:14:04;5.9;;;2.2;;
44126;SDS011;29786;50.798;7.302;2023-01-04T00:15:04;4.5;;;2.2;;
44126;SDS011;29786;50.798;7.302;2023-01-04T00:16:05;4.1;;;2.1;;
44126;SDS011;29786;50.798;7.302;2023-01-04T00:17:04;16.7;;;10.5;;
44126;SDS011;29786;50.798;7.302;2023-01-04T00:18:03;6.8;;;3.1;;
44126;SDS011;29786;50.798;7.302;2023-01-04T00:19:03;8.2;;;3.2;;
44126;SDS011;29786;50.798;7.302;2023-01-04T00:20:03;7.5;;;2.6;;
44126;SDS011;29786;50.798;7.302;2023-01-04T00:21:05;7.1;;;3.2;;
44126;SDS011;29786;50.798;7.302;2023-01-04T00:22:03;4.7;;;2.1;;
44126;SDS011;29786;50.798;7.302;2023-01-04T00:23:03;4.2;;;2.2;;
44126;SDS011;29786;50.798;7.302;2023-01-04T00:24:03;5.7;;;2.4;;
44126;SDS011;29786;50.798;7.302;2023-01-04T00:25:03;3.1;;;1.9;;
44126;SDS011;29786;50.798;7.302;2023-01-04T00:26:06;3.2;;;1.9;;
44126;SDS011;29786;50.798;7.302;2023-01-04T00:27:03;5.6;;;2.1;;
44126;SDS011;29786;50.798;7.302;2023-01-04T00:28:03;6.4;;;2.5;;
44126;SDS011;29786;50.798;7.302;2023-01-04T00:29:04;4.5;;;2.6;;
44126;SDS011;29786;50.798;7.302;2023-01-04T00:30:04;7.7;;;2.3;;
44126;SDS011;29786;50.798;7.302;2023-01-04T00:31:04;6.7;;;2.6;;
44126;SDS011;29786;50.798;7.302;2023-01-04T00:32:03;5.1;;;2.1;;
44126;SDS011;29786;50.798;7.302;2023-01-04T00:33:03;4.8;;;1.9;;
44126;SDS011;29786;50.798;7.302;2023-01-04T00:34:04;4.7;;;2.5;;
44126;SDS011;29786;50.798;7.302;2023-01-04T00:35:03;6.4;;;2.4;;
44126;SDS011;29786;50.798;7.302;2023-01-04T00:36:06;5.6;;;2.2;;
44126;SDS011;29786;50.798;7.302;2023-01-04T00:37:03;5.6;;;2.1;;
44126;SDS011;29786;50.798;7.302;2023-01-04T00:38:03;5;;;2.6;;
44126;SDS011;29786;50.798;7.302;2023-01-04T00:39:03;6.6;;;3.5;;
44126;SDS011;29786;50.798;7.302;2023-01-04T00:40:03;4.8;;;2.8;;
44126;SDS011;29786;50.798;7.302;2023-01-04T00:41:03;7;;;2.6;;
44126;SDS011;29786;50.798;7.302;2023-01-04T00:42:04;4.6;;;3.3;;
44126;SDS011;29786;50.798;7.302;2023-01-04T00:43:03;8.2;;;2.9;;
44126;SDS011;29786;50.798;7.302;2023-01-04T00:44:04;4.8;;;2.9;;
44126;SDS011;29786;50.798;7.302;2023-01-04T00:45:03;7.7;;;2.7;;
44126;SDS011;29786;50.798;7.302;2023-01-04T00:46:04;3.6;;;2.3;;
44126;SDS011;29786;50.798;7.302;2023-01-04T00:47:04;8.2;;;2.4;;
44126;SDS011;29786;50.798;7.302;2023-01-04T00:48:03;3.9;;;1.9;;
44126;SDS011;29786;50.798;7.302;2023-01-04T00:49:04;5.2;;;1.9;;
44126;SDS011;29786;50.798;7.302;2023-01-04T00:50:03;6.6;;;2.2;;
44126;SDS011;29786;50.798;7.302;2023-01-04T00:51:03;6.6;;;2.2;;
44126;SDS011;29786;50.798;7.302;2023-01-04T00:52:03;7.4;;;2.1;;
44126;SDS011;29786;50.798;7.302;2023-01-04T00:53:03;6;;;2.1;;
44126;SDS011;29786;50.798;7.302;2023-01-04T00:54:04;4.7;;;2.2;;
44126;SDS011;29786;50.798;7.302;2023-01-04T00:55:04;5.8;;;2.1;;
44126;SDS011;29786;50.798;7.302;2023-01-04T00:56:03;6.1;;;2;;
44126;SDS011;29786;50.798;7.302;2023-01-04T00:57:03;4.3;;;1.8;;
44126;SDS011;29786;50.798;7.302;2023-01-04T00:58:04;6.3;;;2.2;;
44126;SDS011;29786;50.798;7.302;2023-01-04T00:59:03;5.9;;;2.2;;
44126;SDS011;29786;50.798;7.302;2023-01-04T01:00:03;7.9;;;2.4;;
44126;SDS011;29786;50.798;7.302;2023-01-04T01:01:05;4.1;;;1.7;;
44126;SDS011;29786;50.798;7.302;2023-01-04T01:02:03;4.4;;;1.9;;
44126;SDS011;29786;50.798;7.302;2023-01-04T01:03:04;5.5;;;1.7;;
44126;SDS011;29786;50.798;7.302;2023-01-04T01:04:03;5.4;;;2.1;;
44126;SDS011;29786;50.798;7.302;2023-01-04T01:05:03;6.1;;;1.8;;
44126;SDS011;29786;50.798;7.302;2023-01-04T01:06:03;6;;;2.3;;
44126;SDS011;29786;50.798;7.302;2023-01-04T01:07:03;4.4;;;1.9;;
44126;SDS011;29786;50.798;7.302;2023-01-04T01:08:04;5.9;;;1.9;;
44126;SDS011;29786;50.798;7.302;2023-01-04T01:09:03;6.9;;;2;;
44126;SDS011;29786;50.798;7.302;2023-01-04T01:10:04;5.5;;;2;;
44126;SDS011;29786;50.798;7.302;2023-01-04T01:11:05;6;;;2.3;;
44126;SDS011;29786;50.798;7.302;2023-01-04T01:12:03;4.3;;;1.9;;
44126;SDS011;29786;50.798;7.302;2023-01-04T01:13:03;4.6;;;2;;
44126;SDS011;29786;50.798;7.302;2023-01-04T01:14:03;2.9;;;1.6;;
44126;SDS011;29786;50.798;7.302;2023-01-04T01:15:04;4.7;;;2.1;;
44126;SDS011;29786;50.798;7.302;2023-01-04T01:16:05;6.7;;;2.3;;
44126;SDS011;29786;50.798;7.302;2023-01-04T01:17:04;6.6;;;2.1;;
44126;SDS011;29786;50.798;7.302;2023-01-04T01:18:04;3.9;;;2;;
44126;SDS011;29786;50.798;7.302;2023-01-04T01:19:03;5.7;;;2;;
44126;SDS011;29786;50.798;7.302;2023-01-04T01:20:04;6.3;;;2.1;;
44126;SDS011;29786;50.798;7.302;2023-01-04T01:21:04;4.7;;;1.8;;
44126;SDS011;29786;50.798;7.302;2023-01-04T01:22:03;4.3;;;1.8;;
44126;SDS011;29786;50.798;7.302;2023-01-04T01:23:03;5.7;;;2.1;;
44126;SDS011;29786;50.798;7.302;2023-01-04T01:24:04;3.2;;;1.8;;
44126;SDS011;29786;50.798;7.302;2023-01-04T01:25:03;4.9;;;2;;
44126;SDS011;29786;50.798;7.302;2023-01-04T01:26:05;6.1;;;2.2;;
44126;SDS011;29786;50.798;7.302;2023-01-04T01:27:04;7.1;;;2.3;;
44126;SDS011;29786;50.798;7.302;2023-01-04T01:28:03;5.1;;;1.9;;
44126;SDS011;29786;50.798;7.302;2023-01-04T01:29:03;5.9;;;2.2;;
44126;SDS011;29786;50.798;7.302;2023-01-04T01:30:03;6.1;;;2;;
44126;SDS011;29786;50.798;7.302;2023-01-04T01:31:12;5.1;;;2;;
44126;SDS011;29786;50.798;7.302;2023-01-04T01:32:04;5.4;;;2.1;;
44126;SDS011;29786;50.798;7.302;2023-01-04T01:33:03;7.4;;;1.8;;
44126;SDS011;29786;50.798;7.302;2023-01-04T01:34:03;5.1;;;2;;
44126;SDS011;29786;50.798;7.302;2023-01-04T01:35:04;7.1;;;2;;
44126;SDS011;29786;50.798;7.302;2023-01-04T01:36:03;5.6;;;1.9;;
44126;SDS011;29786;50.798;7.302;2023-01-04T01:37:03;7.3;;;2.1;;
44126;SDS011;29786;50.798;7.302;2023-01-04T01:38:03;6.6;;;1.8;;
44126;SDS011;29786;50.798;7.302;2023-01-04T01:39:04;6.4;;;2.2;;
44126;SDS011;29786;50.798;7.302;2023-01-04T01:40:03;3.8;;;1.8;;
44126;SDS011;29786;50.798;7.302;2023-01-04T01:41:04;6.6;;;2;;
44126;SDS011;29786;50.798;7.302;2023-01-04T01:42:03;6.7;;;1.9;;
44126;SDS011;29786;50.798;7.302;2023-01-04T01:43:04;3.8;;;2;;
44126;SDS011;29786;50.798;7.302;2023-01-04T01:44:05;6;;;2.4;;
44126;SDS011;29786;50.798;7.302;2023-01-04T01:45:04;5.9;;;2.4;;
44126;SDS011;29786;50.798;7.302;2023-01-04T01:46:03;6.4;;;2.2;;
44126;SDS011;29786;50.798;7.302;2023-01-04T01:47:03;4.5;;;2.4;;
44126;SDS011;29786;50.798;7.302;2023-01-04T01:48:05;5.9;;;2.4;;
44126;SDS011;29786;50.798;7.302;2023-01-04T01:49:36;5.5;;;2.1;;
44126;SDS011;29786;50.798;7.302;2023-01-04T01:50:03;4.8;;;2.1;;
44126;SDS011;29786;50.798;7.302;2023-01-04T01:51:03;8;;;2.4;;
44126;SDS011;29786;50.798;7.302;2023-01-04T01:52:05;7.3;;;2.3;;
44126;SDS011;29786;50.798;7.302;2023-01-04T01:53:03;5.4;;;2.1;;
44126;SDS011;29786;50.798;7.302;2023-01-04T01:54:05;9;;;2.5;;
44126;SDS011;29786;50.798;7.302;2023-01-04T01:55:04;5.2;;;2.1;;
44126;SDS011;29786;50.798;7.302;2023-01-04T01:56:04;6.9;;;2.1;;
44126;SDS011;29786;50.798;7.302;2023-01-04T01:57:03;8.3;;;2.3;;
44126;SDS011;29786;50.798;7.302;2023-01-04T01:58:03;7;;;2.2;;
44126;SDS011;29786;50.798;7.302;2023-01-04T01:59:03;8;;;2.2;;
44126;SDS011;29786;50.798;7.302;2023-01-04T02:00:06;4.9;;;2.2;;
44126;SDS011;29786;50.798;7.302;2023-01-04T02:01:04;7.9;;;2.4;;
44126;SDS011;29786;50.798;7.302;2023-01-04T02:02:03;4.5;;;2.1;;
44126;SDS011;29786;50.798;7.302;2023-01-04T02:03:09;4.3;;;2.1;;
44126;SDS011;29786;50.798;7.302;2023-01-04T02:04:04;8;;;2.3;;
44126;SDS011;29786;50.798;7.302;2023-01-04T02:05:03;7.6;;;2.4;;
44126;SDS011;29786;50.798;7.302;2023-01-04T02:06:04;6.7;;;2.4;;
44126;SDS011;29786;50.798;7.302;2023-01-04T02:07:03;5.5;;;2.8;;
44126;SDS011;29786;50.798;7.302;2023-01-04T02:08:04;4.2;;;2.2;;
44126;SDS011;29786;50.798;7.302;2023-01-04T02:09:03;5.3;;;2.2;;
44126;SDS011;29786;50.798;7.302;2023-01-04T02:10:04;8.2;;;2.4;;
44126;SDS011;29786;50.798;7.302;2023-01-04T02:11:03;8.3;;;2.7;;
44126;SDS011;29786;50.798;7.302;2023-01-04T02:12:02;8.1;;;3;;
44126;SDS011;29786;50.798;7.302;2023-01-04T02:13:04;6.1;;;2.2;;
44126;SDS011;29786;50.798;7.302;2023-01-04T02:14:03;6.2;;;2.3;;
44126;SDS011;29786;50.798;7.302;2023-01-04T02:15:03;5.2;;;2;;
44126;SDS011;29786;50.798;7.302;2023-01-04T02:16:12;5.7;;;2.3;;
44126;SDS011;29786;50.798;7.302;2023-01-04T02:17:07;5.1;;;2.4;;
44126;SDS011;29786;50.798;7.302;2023-01-04T02:18:09;8.2;;;2.3;;
44126;SDS011;29786;50.798;7.302;2023-01-04T02:20:37;5.3;;;2.4;;
44126;SDS011;29786;50.798;7.302;2023-01-04T02:21:05;7.6;;;2.2;;
44126;SDS011;29786;50.798;7.302;2023-01-04T02:22:25;7;;;2.4;;
44126;SDS011;29786;50.798;7.302;2023-01-04T02:24:10;4.9;;;2.4;;
44126;SDS011;29786;50.798;7.302;2023-01-04T02:24:14;6.2;;;2.4;;
44126;SDS011;29786;50.798;7.302;2023-01-04T02:25:25;6.3;;;2.4;;
44126;SDS011;29786;50.798;7.302;2023-01-04T02:26:24;7;;;4;;
44126;SDS011;29786;50.798;7.302;2023-01-04T02:27:13;7.7;;;3;;
44126;SDS011;29786;50.798;7.302;2023-01-04T02:28:08;6.3;;;2.7;;
44126;SDS011;29786;50.798;7.302;2023-01-04T02:30:07;9.4;;;3.6;;
44126;SDS011;29786;50.798;7.302;2023-01-04T02:32:05;10.2;;;7.8;;
44126;SDS011;29786;50.798;7.302;2023-01-04T02:33:38;8.2;;;5.7;;
44126;SDS011;29786;50.798;7.302;2023-01-04T02:34:07;7.5;;;3.6;;
44126;SDS011;29786;50.798;7.302;2023-01-04T02:35:08;5.1;;;3.5;;
44126;SDS011;29786;50.798;7.302;2023-01-04T02:36:06;8.6;;;6.1;;
44126;SDS011;29786;50.798;7.302;2023-01-04T02:37:12;5.8;;;2.9;;
44126;SDS011;29786;50.798;7.302;2023-01-04T02:38:21;6.2;;;4.9;;
44126;SDS011;29786;50.798;7.302;2023-01-04T02:39:10;8.5;;;3.9;;
44126;SDS011;29786;50.798;7.302;2023-01-04T02:40:07;9.1;;;5.3;;
44126;SDS011;29786;50.798;7.302;2023-01-04T02:41:14;9.3;;;5;;
44126;SDS011;29786;50.798;7.302;2023-01-04T02:42:08;11.2;;;6.3;;
44126;SDS011;29786;50.798;7.302;2023-01-04T02:43:08;10.1;;;4.1;;
44126;SDS011;29786;50.798;7.302;2023-01-04T02:44:07;6.1;;;3.8;;
44126;SDS011;29786;50.798;7.302;2023-01-04T02:45:03;11;;;8.6;;
44126;SDS011;29786;50.798;7.302;2023-01-04T02:46:04;14.2;;;12.3;;
44126;SDS011;29786;50.798;7.302;2023-01-04T02:47:05;6.2;;;4.3;;
44126;SDS011;29786;50.798;7.302;2023-01-04T02:48:04;8;;;3.1;;
44126;SDS011;29786;50.798;7.302;2023-01-04T02:49:03;8.9;;;4.3;;
44126;SDS011;29786;50.798;7.302;2023-01-04T02:50:08;5.5;;;2.9;;
44126;SDS011;29786;50.798;7.302;2023-01-04T02:51:03;8.2;;;3.5;;
44126;SDS011;29786;50.798;7.302;2023-01-04T02:52:03;8.8;;;3.7;;
44126;SDS011;29786;50.798;7.302;2023-01-04T02:53:07;5.9;;;3.3;;
44126;SDS011;29786;50.798;7.302;2023-01-04T02:54:05;8.9;;;3.1;;
44126;SDS011;29786;50.798;7.302;2023-01-04T02:55:03;7.1;;;3.2;;
44126;SDS011;29786;50.798;7.302;2023-01-04T02:56:17;6.8;;;3.3;;
44126;SDS011;29786;50.798;7.302;2023-01-04T02:57:10;5.3;;;2.8;;
44126;SDS011;29786;50.798;7.302;2023-01-04T02:58:06;8;;;2.9;;
44126;SDS011;29786;50.798;7.302;2023-01-04T02:59:28;6.7;;;2.6;;
44126;SDS011;29786;50.798;7.302;2023-01-04T03:00:14;6.4;;;2.7;;
44126;SDS011;29786;50.798;7.302;2023-01-04T03:01:12;6.5;;;2.7;;
44126;SDS011;29786;50.798;7.302;2023-01-04T03:02:08;4.9;;;2.5;;
44126;SDS011;29786;50.798;7.302;2023-01-04T03:03:21;4.7;;;2.3;;
44126;SDS011;29786;50.798;7.302;2023-01-04T03:04:22;5.8;;;2.2;;
44126;SDS011;29786;50.798;7.302;2023-01-04T03:05:23;7.3;;;2.6;;
44126;SDS011;29786;50.798;7.302;2023-01-04T03:06:08;4.6;;;2.3;;
44126;SDS011;29786;50.798;7.302;2023-01-04T03:07:09;6.5;;;2.3;;
44126;SDS011;29786;50.798;7.302;2023-01-04T03:08:10;4.8;;;2.4;;
44126;SDS011;29786;50.798;7.302;2023-01-04T03:09:06;5.1;;;2.3;;
44126;SDS011;29786;50.798;7.302;2023-01-04T03:10:07;3.5;;;2.6;;
44126;SDS011;29786;50.798;7.302;2023-01-04T03:11:05;6.6;;;2.2;;
44126;SDS011;29786;50.798;7.302;2023-01-04T03:12:05;8.2;;;2.5;;
44126;SDS011;29786;50.798;7.302;2023-01-04T03:13:07;5.6;;;2.5;;
44126;SDS011;29786;50.798;7.302;2023-01-04T03:14:21;6.7;;;2.5;;
44126;SDS011;29786;50.798;7.302;2023-01-04T03:15:14;5.4;;;2.4;;
44126;SDS011;29786;50.798;7.302;2023-01-04T03:16:05;7.2;;;2.5;;
44126;SDS011;29786;50.798;7.302;2023-01-04T03:17:04;5.9;;;2.3;;
44126;SDS011;29786;50.798;7.302;2023-01-04T03:18:07;6.1;;;2.8;;
44126;SDS011;29786;50.798;7.302;2023-01-04T03:19:02;8.1;;;3;;
44126;SDS011;29786;50.798;7.302;2023-01-04T03:20:04;6.4;;;2.6;;
44126;SDS011;29786;50.798;7.302;2023-01-04T03:21:03;6.2;;;2.4;;
44126;SDS011;29786;50.798;7.302;2023-01-04T03:22:03;5.8;;;2.3;;
44126;SDS011;29786;50.798;7.302;2023-01-04T03:23:04;4.9;;;2.3;;
44126;SDS011;29786;50.798;7.302;2023-01-04T03:24:04;4.4;;;2;;
44126;SDS011;29786;50.798;7.302;2023-01-04T03:25:03;5.6;;;2.2;;
44126;SDS011;29786;50.798;7.302;2023-01-04T03:26:04;3.9;;;2.2;;
44126;SDS011;29786;50.798;7.302;2023-01-04T03:27:04;5.5;;;2.5;;
44126;SDS011;29786;50.798;7.302;2023-01-04T03:28:03;5.3;;;2;;
44126;SDS011;29786;50.798;7.302;2023-01-04T03:29:06;7.5;;;2.2;;
44126;SDS011;29786;50.798;7.302;2023-01-04T03:30:04;6.1;;;2.1;;
44126;SDS011;29786;50.798;7.302;2023-01-04T03:31:06;7;;;2.6;;
44126;SDS011;29786;50.798;7.302;2023-01-04T03:32:06;4.6;;;2;;
44126;SDS011;29786;50.798;7.302;2023-01-04T03:33:04;6.4;;;2.1;;
44126;SDS011;29786;50.798;7.302;2023-01-04T03:34:03;4;;;1.9;;
44126;SDS011;29786;50.798;7.302;2023-01-04T03:35:05;5.1;;;2.1;;
44126;SDS011;29786;50.798;7.302;2023-01-04T03:36:11;6.1;;;2.1;;
44126;SDS011;29786;50.798;7.302;2023-01-04T03:37:04;5.1;;;2.1;;
44126;SDS011;29786;50.798;7.302;2023-01-04T03:38:05;4.8;;;2.2;;
44126;SDS011;29786;50.798;7.302;2023-01-04T03:39:07;4;;;1.9;;
44126;SDS011;29786;50.798;7.302;2023-01-04T03:40:15;4.1;;;2;;
44126;SDS011;29786;50.798;7.302;2023-01-04T03:41:08;5;;;2.1;;
44126;SDS011;29786;50.798;7.302;2023-01-04T03:42:04;5.1;;;2.2;;
44126;SDS011;29786;50.798;7.302;2023-01-04T03:43:05;6.5;;;2.2;;
44126;SDS011;29786;50.798;7.302;2023-01-04T03:44:07;5.9;;;2;;
44126;SDS011;29786;50.798;7.302;2023-01-04T03:45:10;6.6;;;1.9;;
44126;SDS011;29786;50.798;7.302;2023-01-04T03:46:05;5.7;;;2;;
44126;SDS011;29786;50.798;7.302;2023-01-04T03:47:05;4.9;;;1.9;;
44126;SDS011;29786;50.798;7.302;2023-01-04T03:48:07;6.5;;;1.7;;
44126;SDS011;29786;50.798;7.302;2023-01-04T03:49:08;2.9;;;1.5;;
44126;SDS011;29786;50.798;7.302;2023-01-04T03:50:06;5.2;;;1.8;;
44126;SDS011;29786;50.798;7.302;2023-01-04T03:51:04;3.5;;;1.7;;
44126;SDS011;29786;50.798;7.302;2023-01-04T03:52:03;3.9;;;1.9;;
44126;SDS011;29786;50.798;7.302;2023-01-04T03:53:04;3.3;;;1.6;;
44126;SDS011;29786;50.798;7.302;2023-01-04T03:54:04;5.9;;;2.2;;
44126;SDS011;29786;50.798;7.302;2023-01-04T03:55:03;2.6;;;1.6;;
44126;SDS011;29786;50.798;7.302;2023-01-04T03:56:03;2.8;;;1.8;;
44126;SDS011;29786;50.798;7.302;2023-01-04T03:57:03;5.6;;;1.6;;
44126;SDS011;29786;50.798;7.302;2023-01-04T03:58:03;2.3;;;1.5;;
44126;SDS011;29786;50.798;7.302;2023-01-04T03:59:03;2.7;;;1.4;;
44126;SDS011;29786;50.798;7.302;2023-01-04T04:00:07;2.3;;;1.5;;
44126;SDS011;29786;50.798;7.302;2023-01-04T04:01:03;3.3;;;1.6;;
44126;SDS011;29786;50.798;7.302;2023-01-04T04:02:03;3.3;;;1.7;;
44126;SDS011;29786;50.798;7.302;2023-01-04T04:03:04;3.6;;;1.6;;
44126;SDS011;29786;50.798;7.302;2023-01-04T04:04:03;2.3;;;1.6;;
44126;SDS011;29786;50.798;7.302;2023-01-04T04:05:04;2.7;;;1.4;;
44126;SDS011;29786;50.798;7.302;2023-01-04T04:06:03;4.4;;;1.4;;
44126;SDS011;29786;50.798;7.302;2023-01-04T04:07:04;4.2;;;1.4;;
44126;SDS011;29786;50.798;7.302;2023-01-04T04:08:03;3.4;;;1.7;;
44126;SDS011;29786;50.798;7.302;2023-01-04T04:09:03;2.6;;;1.4;;
44126;SDS011;29786;50.798;7.302;2023-01-04T04:10:03;2.7;;;1.4;;
44126;SDS011;29786;50.798;7.302;2023-01-04T04:11:03;4;;;1.5;;
44126;SDS011;29786;50.798;7.302;2023-01-04T04:12:04;1.6;;;1.4;;
44126;SDS011;29786;50.798;7.302;2023-01-04T04:13:03;3.2;;;1.5;;
44126;SDS011;29786;50.798;7.302;2023-01-04T04:14:04;3.4;;;1.6;;
44126;SDS011;29786;50.798;7.302;2023-01-04T04:15:03;3;;;1.3;;
44126;SDS011;29786;50.798;7.302;2023-01-04T04:16:03;1.4;;;1.2;;
44126;SDS011;29786;50.798;7.302;2023-01-04T04:17:04;2.1;;;1.2;;
44126;SDS011;29786;50.798;7.302;2023-01-04T04:18:03;2;;;1.3;;
44126;SDS011;29786;50.798;7.302;2023-01-04T04:19:03;2.3;;;1.3;;
44126;SDS011;29786;50.798;7.302;2023-01-04T04:20:04;2.9;;;1.1;;
44126;SDS011;29786;50.798;7.302;2023-01-04T04:21:04;2.8;;;1.3;;
44126;SDS011;29786;50.798;7.302;2023-01-04T04:22:03;3.4;;;1.5;;
44126;SDS011;29786;50.798;7.302;2023-01-04T04:23:03;2.8;;;1.2;;
44126;SDS011;29786;50.798;7.302;2023-01-04T04:24:03;1.9;;;1.3;;
44126;SDS011;29786;50.798;7.302;2023-01-04T04:25:03;2;;;1.3;;
44126;SDS011;29786;50.798;7.302;2023-01-04T04:26:03;1.9;;;1.1;;
44126;SDS011;29786;50.798;7.302;2023-01-04T04:27:02;3.7;;;1.2;;
44126;SDS011;29786;50.798;7.302;2023-01-04T04:28:03;1.7;;;1.1;;
44126;SDS011;29786;50.798;7.302;2023-01-04T04:29:03;1.7;;;1.1;;
44126;SDS011;29786;50.798;7.302;2023-01-04T04:30:03;1.6;;;1.3;;
44126;SDS011;29786;50.798;7.302;2023-01-04T04:31:03;2.4;;;1.4;;
44126;SDS011;29786;50.798;7.302;2023-01-04T04:32:04;1.9;;;1.2;;
44126;SDS011;29786;50.798;7.302;2023-01-04T04:33:03;2.7;;;1.2;;
44126;SDS011;29786;50.798;7.302;2023-01-04T04:34:04;3.3;;;1;;
44126;SDS011;29786;50.798;7.302;2023-01-04T04:35:03;1.3;;;1.2;;
44126;SDS011;29786;50.798;7.302;2023-01-04T04:36:05;2.2;;;1.2;;
44126;SDS011;29786;50.798;7.302;2023-01-04T04:37:03;2.4;;;1.3;;
44126;SDS011;29786;50.798;7.302;2023-01-04T04:38:03;1.5;;;1.2;;
44126;SDS011;29786;50.798;7.302;2023-01-04T04:39:03;1.3;;;1.2;;
44126;SDS011;29786;50.798;7.302;2023-01-04T04:40:04;1.6;;;1.2;;
44126;SDS011;29786;50.798;7.302;2023-01-04T04:41:07;2.1;;;1.1;;
44126;SDS011;29786;50.798;7.302;2023-01-04T04:42:03;2.3;;;1.8;;
44126;SDS011;29786;50.798;7.302;2023-01-04T04:43:06;1.6;;;1.5;;
44126;SDS011;29786;50.798;7.302;2023-01-04T04:44:05;1.5;;;1.4;;
44126;SDS011;29786;50.798;7.302;2023-01-04T04:45:04;1.9;;;1.1;;
44126;SDS011;29786;50.798;7.302;2023-01-04T04:46:03;1.5;;;1.2;;
44126;SDS011;29786;50.798;7.302;2023-01-04T04:47:03;2.3;;;1.3;;
44126;SDS011;29786;50.798;7.302;2023-01-04T04:48:03;2.8;;;2.1;;
44126;SDS011;29786;50.798;7.302;2023-01-04T04:49:04;1.5;;;1.2;;
44126;SDS011;29786;50.798;7.302;2023-01-04T04:50:03;2.1;;;1.3;;
44126;SDS011;29786;50.798;7.302;2023-01-04T04:51:03;2.5;;;1.6;;
44126;SDS011;29786;50.798;7.302;2023-01-04T04:52:03;2.8;;;1.5;;
44126;SDS011;29786;50.798;7.302;2023-01-04T04:53:03;3;;;2.8;;
44126;SDS011;29786;50.798;7.302;2023-01-04T04:54:03;3.6;;;1.2;;
44126;SDS011;29786;50.798;7.302;2023-01-04T04:55:03;4;;;3.7;;
44126;SDS011;29786;50.798;7.302;2023-01-04T04:56:03;2.2;;;1.7;;
44126;SDS011;29786;50.798;7.302;2023-01-04T04:57:03;2.7;;;1.3;;
44126;SDS011;29786;50.798;7.302;2023-01-04T04:58:03;2.8;;;1.6;;
44126;SDS011;29786;50.798;7.302;2023-01-04T04:59:03;2.7;;;1.5;;
44126;SDS011;29786;50.798;7.302;2023-01-04T05:00:03;1.6;;;1.2;;
44126;SDS011;29786;50.798;7.302;2023-01-04T05:01:03;1.4;;;1.2;;
44126;SDS011;29786;50.798;7.302;2023-01-04T05:02:04;1.7;;;1.1;;
44126;SDS011;29786;50.798;7.302;2023-01-04T05:03:03;1;;;0.9;;
44126;SDS011;29786;50.798;7.302;2023-01-04T05:04:03;1.8;;;1.4;;
44126;SDS011;29786;50.798;7.302;2023-01-04T05:05:04;1.2;;;1.1;;
44126;SDS011;29786;50.798;7.302;2023-01-04T05:06:03;1.4;;;1.3;;
44126;SDS011;29786;50.798;7.302;2023-01-04T05:07:03;1.5;;;1.2;;
44126;SDS011;29786;50.798;7.302;2023-01-04T05:08:03;2.2;;;1.1;;
44126;SDS011;29786;50.798;7.302;2023-01-04T05:09:03;1.3;;;1.2;;
44126;SDS011;29786;50.798;7.302;2023-01-04T05:10:03;1.5;;;1.4;;
44126;SDS011;29786;50.798;7.302;2023-01-04T05:11:04;1.4;;;1.3;;
44126;SDS011;29786;50.798;7.302;2023-01-04T05:12:03;1.7;;;1.6;;
44126;SDS011;29786;50.798;7.302;2023-01-04T05:13:04;1.7;;;1.2;;
44126;SDS011;29786;50.798;7.302;2023-01-04T05:14:03;1.7;;;1.5;;
44126;SDS011;29786;50.798;7.302;2023-01-04T05:15:03;1.5;;;1.2;;
44126;SDS011;29786;50.798;7.302;2023-01-04T05:16:04;1.8;;;1;;
44126;SDS011;29786;50.798;7.302;2023-01-04T05:17:03;1.7;;;1.2;;
44126;SDS011;29786;50.798;7.302;2023-01-04T05:18:04;1.7;;;1.2;;
44126;SDS011;29786;50.798;7.302;2023-01-04T05:19:03;1.1;;;1;;
44126;SDS011;29786;50.798;7.302;2023-01-04T05:20:05;1.7;;;1;;
44126;SDS011;29786;50.798;7.302;2023-01-04T05:21:03;2.3;;;1.1;;
44126;SDS011;29786;50.798;7.302;2023-01-04T05:22:03;1;;;1;;
44126;SDS011;29786;50.798;7.302;2023-01-04T05:23:04;1.3;;;1;;
44126;SDS011;29786;50.798;7.302;2023-01-04T05:24:03;1;;;1;;
44126;SDS011;29786;50.798;7.302;2023-01-04T05:25:03;1;;;0.9;;
44126;SDS011;29786;50.798;7.302;2023-01-04T05:26:03;1.2;;;1;;
44126;SDS011;29786;50.798;7.302;2023-01-04T05:27:04;1.2;;;0.9;;
44126;SDS011;29786;50.798;7.302;2023-01-04T05:28:04;0.9;;;0.9;;
44126;SDS011;29786;50.798;7.302;2023-01-04T05:29:03;1;;;1;;
44126;SDS011;29786;50.798;7.302;2023-01-04T05:30:04;1.8;;;0.9;;
44126;SDS011;29786;50.798;7.302;2023-01-04T05:31:03;1;;;0.9;;
44126;SDS011;29786;50.798;7.302;2023-01-04T05:32:03;1.1;;;0.8;;
44126;SDS011;29786;50.798;7.302;2023-01-04T05:33:04;0.9;;;0.9;;
44126;SDS011;29786;50.798;7.302;2023-01-04T05:34:03;1.1;;;0.9;;
44126;SDS011;29786;50.798;7.302;2023-01-04T05:35:03;0.9;;;0.9;;
44126;SDS011;29786;50.798;7.302;2023-01-04T05:36:03;0.7;;;0.7;;
44126;SDS011;29786;50.798;7.302;2023-01-04T05:37:03;1;;;1;;
44126;SDS011;29786;50.798;7.302;2023-01-04T05:38:04;0.8;;;0.8;;
44126;SDS011;29786;50.798;7.302;2023-01-04T05:39:03;1.2;;;1.1;;
44126;SDS011;29786;50.798;7.302;2023-01-04T05:40:03;0.8;;;0.8;;
44126;SDS011;29786;50.798;7.302;2023-01-04T05:41:03;1.3;;;1;;
44126;SDS011;29786;50.798;7.302;2023-01-04T05:42:03;1.3;;;0.9;;
44126;SDS011;29786;50.798;7.302;2023-01-04T05:43:03;1.3;;;0.9;;
44126;SDS011;29786;50.798;7.302;2023-01-04T05:44:03;1.5;;;1.1;;
44126;SDS011;29786;50.798;7.302;2023-01-04T05:45:04;1;;;1;;
44126;SDS011;29786;50.798;7.302;2023-01-04T05:46:03;0.7;;;0.7;;
44126;SDS011;29786;50.798;7.302;2023-01-04T05:47:03;1.6;;;0.9;;
44126;SDS011;29786;50.798;7.302;2023-01-04T05:48:03;0.7;;;0.7;;
44126;SDS011;29786;50.798;7.302;2023-01-04T05:49:03;0.9;;;0.9;;
44126;SDS011;29786;50.798;7.302;2023-01-04T05:50:03;0.9;;;0.9;;
44126;SDS011;29786;50.798;7.302;2023-01-04T05:51:03;0.8;;;0.8;;
44126;SDS011;29786;50.798;7.302;2023-01-04T05:52:03;0.8;;;0.8;;
44126;SDS011;29786;50.798;7.302;2023-01-04T05:53:04;1.1;;;1;;
44126;SDS011;29786;50.798;7.302;2023-01-04T05:54:03;0.8;;;0.8;;
44126;SDS011;29786;50.798;7.302;2023-01-04T05:55:03;0.9;;;0.9;;
44126;SDS011;29786;50.798;7.302;2023-01-04T05:56:03;0.9;;;0.9;;
44126;SDS011;29786;50.798;7.302;2023-01-04T05:57:04;1.1;;;1.1;;
44126;SDS011;29786;50.798;7.302;2023-01-04T05:58:04;1.4;;;0.9;;
44126;SDS011;29786;50.798;7.302;2023-01-04T05:59:03;0.9;;;0.9;;
44126;SDS011;29786;50.798;7.302;2023-01-04T06:00:04;0.9;;;0.9;;
44126;SDS011;29786;50.798;7.302;2023-01-04T06:01:05;1.3;;;0.9;;
44126;SDS011;29786;50.798;7.302;2023-01-04T06:02:04;0.7;;;0.7;;
44126;SDS011;29786;50.798;7.302;2023-01-04T06:03:04;0.9;;;0.9;;
44126;SDS011;29786;50.798;7.302;2023-01-04T06:04:03;1.3;;;0.9;;
44126;SDS011;29786;50.798;7.302;2023-01-04T06:05:04;1.4;;;1.3;;
44126;SDS011;29786;50.798;7.302;2023-01-04T06:06:03;0.9;;;0.9;;
44126;SDS011;29786;50.798;7.302;2023-01-04T06:07:03;0.7;;;0.7;;
44126;SDS011;29786;50.798;7.302;2023-01-04T06:08:03;1;;;0.9;;
44126;SDS011;29786;50.798;7.302;2023-01-04T06:09:03;1;;;0.8;;
44126;SDS011;29786;50.798;7.302;2023-01-04T06:10:05;0.8;;;0.8;;
44126;SDS011;29786;50.798;7.302;2023-01-04T06:11:04;0.7;;;0.7;;
44126;SDS011;29786;50.798;7.302;2023-01-04T06:12:04;1;;;1;;
44126;SDS011;29786;50.798;7.302;2023-01-04T06:13:03;0.7;;;0.7;;
44126;SDS011;29786;50.798;7.302;2023-01-04T06:14:03;1.1;;;1;;
44126;SDS011;29786;50.798;7.302;2023-01-04T06:15:03;0.9;;;0.9;;
44126;SDS011;29786;50.798;7.302;2023-01-04T06:16:03;1.7;;;0.8;;
44126;SDS011;29786;50.798;7.302;2023-01-04T06:17:03;1;;;0.9;;
44126;SDS011;29786;50.798;7.302;2023-01-04T06:18:03;0.9;;;0.9;;